Time;durP1;ratioP1;P1;durP2;ratioP2;P2;SDS_P1;SDS_P2;PMS_P1;PMS_P2;Temp;Humidity;BMP_temperature;BMP_pressure;BME280_temperature;BME280_humidity;BME280_pressure;Samples;Min_cycle;Max_cycle;Signal;HPM_P1;HPM_P2
2023/08/29 00:01:47;;;;;;;1.40;1.23;;;18.50;99.90;;;;;;10134407;28;20028;-70
2023/08/29 00:06:37;;;;;;;1.65;1.55;;;18.40;99.90;;;;;;10101528;28;20041;-70
2023/08/29 00:11:28;;;;;;;1.60;1.20;;;18.40;99.90;;;;;;10106283;28;20029;-71
2023/08/29 00:16:19;;;;;;;2.83;1.33;;;18.40;99.90;;;;;;10125755;28;20039;-70
2023/08/29 00:21:09;;;;;;;1.25;1.15;;;18.40;99.90;;;;;;10134333;28;20031;-71
2023/08/29 00:26:00;;;;;;;3.20;1.80;;;18.40;99.90;;;;;;10126854;28;20425;-70
2023/08/29 00:30:53;;;;;;;1.25;1.02;;;18.40;99.90;;;;;;10117090;28;20090;-72
2023/08/29 00:35:43;;;;;;;2.72;1.50;;;18.40;99.90;;;;;;10132333;28;20032;-72
2023/08/29 00:40:35;;;;;;;1.45;1.00;;;18.40;99.90;;;;;;10133561;28;20028;-72
2023/08/29 00:45:29;;;;;;;1.20;1.05;;;18.30;99.90;;;;;;10128909;28;20060;-72
2023/08/29 00:50:19;;;;;;;1.63;1.00;;;18.30;99.90;;;;;;10138183;28;20028;-71
2023/08/29 00:55:10;;;;;;;1.38;0.90;;;18.30;99.90;;;;;;10143760;28;20425;-71
2023/08/29 01:00:01;;;;;;;1.20;1.00;;;18.30;99.90;;;;;;10140239;28;20028;-70
2023/08/29 01:04:52;;;;;;;2.78;1.20;;;18.20;99.90;;;;;;10136082;28;20450;-69
2023/08/29 01:09:43;;;;;;;3.33;1.15;;;18.20;99.90;;;;;;10126011;28;20098;-71
2023/08/29 01:14:59;;;;;;;1.60;1.20;;;18.20;99.90;;;;;;10131789;28;20051;-71
2023/08/29 01:19:52;;;;;;;1.05;0.88;;;18.10;99.90;;;;;;10129346;28;20025;-71
2023/08/29 01:25:06;;;;;;;1.40;0.73;;;18.20;99.90;;;;;;10126942;28;20057;-71
2023/08/29 01:29:57;;;;;;;2.00;1.40;;;18.10;99.90;;;;;;10128049;28;20031;-71
2023/08/29 01:34:50;;;;;;;2.17;1.75;;;18.10;99.90;;;;;;10112948;28;20070;-70
2023/08/29 01:39:41;;;;;;;2.72;1.33;;;18.20;99.90;;;;;;10139082;28;20029;-71
2023/08/29 01:44:32;;;;;;;2.55;1.05;;;18.20;99.90;;;;;;10128922;28;20053;-71
2023/08/29 01:49:22;;;;;;;1.20;1.10;;;18.10;99.90;;;;;;10126928;28;20441;-69
2023/08/29 01:54:13;;;;;;;2.10;1.13;;;18.10;99.90;;;;;;10129304;28;20227;-70
2023/08/29 01:59:06;;;;;;;2.38;1.40;;;18.10;99.90;;;;;;10138460;28;20090;-70
2023/08/29 02:03:57;;;;;;;1.60;0.98;;;18.10;99.90;;;;;;10113532;28;20036;-70
2023/08/29 02:08:48;;;;;;;1.13;1.00;;;18.10;99.90;;;;;;10105992;28;20028;-69
2023/08/29 02:13:38;;;;;;;4.70;1.50;;;18.20;99.90;;;;;;10125599;28;20039;-71
2023/08/29 02:18:29;;;;;;;1.45;0.93;;;18.20;99.90;;;;;;10133304;28;20586;-71
2023/08/29 02:23:20;;;;;;;1.73;1.10;;;18.10;99.90;;;;;;10124714;28;20039;-71
2023/08/29 02:28:11;;;;;;;1.50;1.25;;;18.10;99.90;;;;;;10128190;28;20123;-69
2023/08/29 02:33:01;;;;;;;1.55;1.20;;;18.00;99.90;;;;;;10119325;28;20037;-70
2023/08/29 02:37:52;;;;;;;1.92;1.35;;;18.00;99.90;;;;;;10126742;28;20032;-70
2023/08/29 02:42:43;;;;;;;1.45;1.23;;;18.00;99.90;;;;;;10128089;28;20062;-70
2023/08/29 02:47:34;;;;;;;1.80;1.30;;;18.10;99.90;;;;;;10129992;28;20392;-70
2023/08/29 02:52:25;;;;;;;3.13;1.67;;;18.10;99.90;;;;;;10128983;28;20024;-70
2023/08/29 02:57:15;;;;;;;2.22;1.42;;;18.00;99.90;;;;;;10121161;28;20029;-71
2023/08/29 03:02:06;;;;;;;2.50;1.50;;;18.00;99.90;;;;;;10130630;28;20481;-70
2023/08/29 03:06:57;;;;;;;3.63;2.10;;;18.00;99.90;;;;;;10124996;28;20040;-70
2023/08/29 03:11:48;;;;;;;2.80;1.40;;;18.00;99.90;;;;;;10130002;28;20116;-70
2023/08/29 03:16:39;;;;;;;1.42;1.33;;;18.00;99.90;;;;;;10147394;28;20619;-70
2023/08/29 03:21:29;;;;;;;3.50;1.40;;;18.00;99.90;;;;;;10136555;28;20166;-70
2023/08/29 03:26:20;;;;;;;3.20;1.42;;;18.00;99.90;;;;;;10114628;28;20295;-70
2023/08/29 03:31:15;;;;;;;2.25;1.95;;;17.90;99.90;;;;;;10106217;28;20029;-69
2023/08/29 03:36:06;;;;;;;2.37;1.73;;;17.90;99.90;;;;;;10126110;28;20047;-69
2023/08/29 03:40:58;;;;;;;3.60;1.77;;;17.90;99.90;;;;;;10129887;28;20267;-71
2023/08/29 03:45:58;;;;;;;1.83;1.33;;;17.90;99.90;;;;;;10131330;28;20045;-71
2023/08/29 03:50:49;;;;;;;1.60;1.50;;;18.00;99.90;;;;;;10131512;28;20264;-71
2023/08/29 03:55:40;;;;;;;4.05;1.80;;;18.00;99.90;;;;;;10120307;28;20024;-71
2023/08/29 04:00:31;;;;;;;2.50;1.60;;;17.90;99.90;;;;;;10128481;28;20547;-72
2023/08/29 04:05:21;;;;;;;2.20;1.40;;;17.90;99.90;;;;;;10125335;28;20033;-71
2023/08/29 04:10:12;;;;;;;2.03;1.52;;;17.90;99.90;;;;;;10119151;28;20028;-71
2023/08/29 04:15:04;;;;;;;2.38;1.63;;;17.90;99.90;;;;;;10124445;28;20502;-72
2023/08/29 04:19:54;;;;;;;2.72;1.60;;;17.80;99.90;;;;;;10111851;28;20033;-71
2023/08/29 04:24:45;;;;;;;3.08;1.88;;;17.80;99.90;;;;;;10117833;28;20032;-70
2023/08/29 04:29:36;;;;;;;5.18;2.50;;;17.80;99.90;;;;;;10146583;28;20392;-71
2023/08/29 04:34:27;;;;;;;5.18;2.58;;;17.70;99.90;;;;;;10133952;28;20032;-71
2023/08/29 04:39:20;;;;;;;4.40;2.47;;;17.80;99.90;;;;;;10128973;28;20027;-71
2023/08/29 04:44:11;;;;;;;4.95;2.83;;;17.60;99.90;;;;;;10141661;28;20041;-70
2023/08/29 04:49:03;;;;;;;2.95;1.95;;;17.60;99.90;;;;;;10139700;28;20041;-72
2023/08/29 04:53:54;;;;;;;4.30;2.28;;;17.60;99.90;;;;;;10140237;28;20126;-71
2023/08/29 04:58:44;;;;;;;2.95;2.55;;;17.60;99.90;;;;;;10126950;28;20379;-70
2023/08/29 05:03:35;;;;;;;3.10;2.78;;;17.50;99.90;;;;;;10131472;28;20090;-70
2023/08/29 05:08:26;;;;;;;3.45;2.83;;;17.60;99.90;;;;;;10136298;28;20032;-71
2023/08/29 05:13:16;;;;;;;4.90;2.72;;;17.60;99.90;;;;;;10128302;28;20495;-71
2023/08/29 05:18:07;;;;;;;7.38;3.22;;;17.50;99.90;;;;;;10115132;28;20035;-71
2023/08/29 05:22:57;;;;;;;4.70;3.58;;;17.50;99.90;;;;;;10142002;28;20025;-70
2023/08/29 05:27:48;;;;;;;3.45;3.13;;;17.60;99.90;;;;;;10112934;28;20044;-70
2023/08/29 05:32:39;;;;;;;3.90;2.78;;;17.60;99.90;;;;;;10123869;28;20100;-69
2023/08/29 05:37:29;;;;;;;5.88;2.80;;;17.70;99.90;;;;;;10128778;28;20514;-69
2023/08/29 05:42:20;;;;;;;3.75;2.85;;;17.60;99.90;;;;;;10129687;28;20040;-70
2023/08/29 05:47:11;;;;;;;4.70;3.45;;;17.70;99.90;;;;;;10126729;28;20118;-69
2023/08/29 05:52:01;;;;;;;5.13;3.33;;;17.70;99.90;;;;;;10133423;28;20039;-70
2023/08/29 05:56:52;;;;;;;6.38;4.05;;;17.70;99.90;;;;;;10121504;28;20107;-71
2023/08/29 06:01:43;;;;;;;4.38;3.90;;;17.70;99.90;;;;;;10108207;28;20024;-70
2023/08/29 06:06:33;;;;;;;5.00;3.58;;;17.70;99.90;;;;;;10128871;28;20260;-70
2023/08/29 06:11:25;;;;;;;6.10;3.85;;;17.70;99.90;;;;;;10127863;28;20024;-69
2023/08/29 06:16:16;;;;;;;5.15;3.50;;;17.70;99.90;;;;;;10129209;28;20164;-70
2023/08/29 06:21:08;;;;;;;4.97;3.75;;;17.80;99.90;;;;;;10136229;28;20514;-70
2023/08/29 06:25:59;;;;;;;4.22;3.42;;;17.80;99.90;;;;;;10138977;28;20033;-70
2023/08/29 06:30:50;;;;;;;6.18;3.88;;;17.90;99.90;;;;;;10120177;28;20021;-70
2023/08/29 06:35:41;;;;;;;4.97;3.53;;;17.90;99.90;;;;;;10105394;28;20029;-71
2023/08/29 06:40:37;;;;;;;4.55;3.53;;;18.00;99.90;;;;;;10133511;28;20143;-70
2023/08/29 06:45:28;;;;;;;7.22;4.00;;;18.00;99.90;;;;;;10118070;28;20156;-70
2023/08/29 06:50:18;;;;;;;5.30;4.07;;;18.00;99.90;;;;;;10133531;28;20128;-70
2023/08/29 06:55:13;;;;;;;7.05;4.10;;;18.00;99.90;;;;;;10129344;28;20031;-72
2023/08/29 07:00:04;;;;;;;5.85;4.13;;;18.00;99.90;;;;;;10109322;28;20031;-70
2023/08/29 07:04:55;;;;;;;6.22;4.05;;;18.00;99.90;;;;;;10107458;28;20069;-70
2023/08/29 07:09:46;;;;;;;7.18;4.55;;;18.00;99.90;;;;;;10131157;28;20020;-71
2023/08/29 07:14:36;;;;;;;6.03;4.28;;;18.20;99.90;;;;;;10128285;28;20040;-72
2023/08/29 07:19:28;;;;;;;6.15;4.60;;;18.10;99.90;;;;;;10134590;28;20073;-70
2023/08/29 07:24:19;;;;;;;5.57;4.10;;;18.20;99.90;;;;;;10136504;28;20438;-70
2023/08/29 07:29:09;;;;;;;5.68;4.85;;;18.10;99.90;;;;;;10116292;28;20044;-70
2023/08/29 07:34:00;;;;;;;6.68;3.85;;;18.20;99.90;;;;;;10118512;28;20037;-71
2023/08/29 07:38:51;;;;;;;4.97;4.30;;;18.30;99.90;;;;;;10127817;28;20025;-72
2023/08/29 07:43:41;;;;;;;5.57;3.83;;;18.30;99.90;;;;;;10105424;28;20508;-70
2023/08/29 07:48:32;;;;;;;5.50;3.83;;;18.30;99.90;;;;;;10099004;28;20033;-70
2023/08/29 07:53:23;;;;;;;8.73;4.43;;;18.40;99.90;;;;;;10122215;28;20036;-70
2023/08/29 07:58:13;;;;;;;4.50;3.50;;;18.40;99.90;;;;;;10127058;28;20279;-68
2023/08/29 08:03:04;;;;;;;7.78;4.13;;;18.40;99.90;;;;;;10134222;28;20024;-70
2023/08/29 08:07:56;;;;;;;6.95;3.63;;;18.50;99.90;;;;;;10129891;28;20046;-71
2023/08/29 08:12:48;;;;;;;6.65;4.50;;;18.50;99.90;;;;;;10132019;28;20024;-70
2023/08/29 08:17:38;;;;;;;6.00;4.45;;;18.60;99.90;;;;;;10121450;28;20127;-72
2023/08/29 08:22:29;;;;;;;5.78;4.13;;;18.70;99.90;;;;;;10129169;28;20116;-69
2023/08/29 08:27:19;;;;;;;5.93;4.20;;;18.90;99.90;;;;;;10122388;28;20106;-71
2023/08/29 08:32:10;;;;;;;5.82;4.13;;;18.90;99.90;;;;;;10116719;28;20394;-70
2023/08/29 08:37:01;;;;;;;4.68;4.18;;;18.90;99.90;;;;;;10137422;28;20575;-70
2023/08/29 08:41:52;;;;;;;6.25;4.10;;;18.90;99.90;;;;;;10131919;28;20718;-70
2023/08/29 08:46:44;;;;;;;5.35;3.83;;;18.90;99.90;;;;;;10135823;28;20048;-70
2023/08/29 08:51:37;;;;;;;6.43;4.38;;;18.90;99.90;;;;;;10120077;28;20036;-69
2023/08/29 08:56:28;;;;;;;8.10;4.60;;;18.90;99.90;;;;;;10123236;28;20112;-70
2023/08/29 09:01:19;;;;;;;6.10;3.67;;;18.80;99.90;;;;;;10135968;28;20020;-72
2023/08/29 09:06:09;;;;;;;4.38;3.42;;;18.80;99.90;;;;;;10118935;28;20044;-73
2023/08/29 09:11:01;;;;;;;5.53;4.97;;;18.80;99.90;;;;;;10107895;28;20508;-70
2023/08/29 09:15:52;;;;;;;6.07;2.97;;;18.80;99.90;;;;;;10127850;28;20025;-69
2023/08/29 09:20:43;;;;;;;4.63;3.50;;;18.80;99.90;;;;;;10116556;28;20016;-72
2023/08/29 09:25:34;;;;;;;5.38;3.47;;;18.90;99.90;;;;;;10146870;28;20313;-71
2023/08/29 09:30:24;;;;;;;4.43;3.50;;;19.00;99.90;;;;;;10130030;28;20271;-73
2023/08/29 09:35:22;;;;;;;4.63;3.38;;;19.00;99.90;;;;;;10131778;28;20512;-73
2023/08/29 09:40:17;;;;;;;3.67;3.22;;;18.90;99.90;;;;;;10133215;28;20101;-73
2023/08/29 09:45:14;;;;;;;;;;;18.90;99.90;;;;;;10110301;28;20044;-74
2023/08/29 09:50:05;;;;;;;3.90;3.13;;;19.00;99.90;;;;;;10135815;28;19908;-73
2023/08/29 09:54:57;;;;;;;4.20;3.17;;;19.00;99.90;;;;;;10125097;28;20172;-73
2023/08/29 09:59:51;;;;;;;4.43;3.38;;;19.20;99.90;;;;;;10115045;28;20544;-74
2023/08/29 10:04:45;;;;;;;4.55;3.38;;;19.30;99.90;;;;;;10110894;28;20135;-74
2023/08/29 10:09:36;;;;;;;3.90;2.80;;;19.40;99.90;;;;;;10106413;28;20043;-74
2023/08/29 10:14:28;;;;;;;4.70;3.22;;;19.40;99.90;;;;;;10135529;28;20032;-72
2023/08/29 10:19:20;;;;;;;4.00;2.97;;;19.50;99.90;;;;;;10123208;28;20120;-75
2023/08/29 10:24:12;;;;;;;3.88;3.20;;;19.40;99.90;;;;;;10093765;28;20036;-74
2023/08/29 10:29:05;;;;;;;3.63;2.78;;;19.40;99.90;;;;;;10111857;28;20025;-76
2023/08/29 10:33:56;;;;;;;5.03;2.70;;;19.50;99.90;;;;;;10132498;28;20025;-76
2023/08/29 10:38:48;;;;;;;3.22;2.58;;;19.50;99.90;;;;;;10111614;28;20036;-74
2023/08/29 10:43:38;;;;;;;4.75;3.53;;;19.60;99.90;;;;;;10113306;28;20538;-74
2023/08/29 10:48:30;;;;;;;5.70;3.10;;;19.60;99.90;;;;;;10131022;28;20033;-74
2023/08/29 10:53:20;;;;;;;4.82;3.55;;;19.60;99.90;;;;;;10120637;28;20398;-74
2023/08/29 10:58:32;;;;;;;4.47;3.08;;;19.70;99.90;;;;;;10134190;28;20513;-74
2023/08/29 11:03:45;;;;;;;3.03;2.72;;;19.80;99.90;;;;;;10126463;28;20736;-73
2023/08/29 11:08:36;;;;;;;3.00;2.47;;;19.90;99.90;;;;;;10122519;28;20029;-69
2023/08/29 11:13:26;;;;;;;4.43;3.22;;;19.90;99.90;;;;;;10130304;28;20020;-71
2023/08/29 11:18:32;;;;;;;5.22;3.13;;;20.00;99.90;;;;;;10118732;28;20372;-70
2023/08/29 11:23:23;;;;;;;3.85;2.92;;;20.00;99.90;;;;;;10114897;28;20417;-69
2023/08/29 11:28:13;;;;;;;3.33;2.80;;;19.90;99.90;;;;;;10124550;28;20470;-69
2023/08/29 11:33:05;;;;;;;4.60;3.22;;;19.90;99.90;;;;;;10109971;28;20025;-69
2023/08/29 11:37:57;;;;;;;4.95;3.05;;;19.80;99.90;;;;;;10103452;28;20031;-70
2023/08/29 11:42:48;;;;;;;4.05;2.50;;;19.70;99.90;;;;;;10132536;28;20140;-70
2023/08/29 11:47:40;;;;;;;3.20;2.53;;;19.80;99.90;;;;;;10129311;28;20561;-70
2023/08/29 11:52:31;;;;;;;3.83;3.03;;;19.80;99.90;;;;;;10120395;28;20034;-72
2023/08/29 11:57:23;;;;;;;3.47;2.45;;;19.80;99.90;;;;;;10117358;28;20029;-71
2023/08/29 12:02:15;;;;;;;4.10;3.13;;;19.80;99.90;;;;;;10123517;28;20492;-71
2023/08/29 12:07:13;;;;;;;4.47;2.90;;;19.90;99.90;;;;;;10100380;28;20040;-71
2023/08/29 12:12:06;;;;;;;2.00;1.75;;;19.80;99.90;;;;;;10126007;28;20025;-70
2023/08/29 12:16:57;;;;;;;2.80;1.83;;;19.80;99.90;;;;;;10110238;28;20029;-70
2023/08/29 12:21:54;;;;;;;1.50;1.20;;;19.80;99.90;;;;;;10111231;22;20053;-68
2023/08/29 12:26:45;;;;;;;2.67;1.95;;;19.70;99.90;;;;;;10088920;28;20041;-68
2023/08/29 12:31:36;;;;;;;1.67;1.38;;;19.70;99.90;;;;;;10078655;28;20032;-67
2023/08/29 12:36:27;;;;;;;1.88;1.65;;;19.90;99.90;;;;;;10102978;28;20040;-66
2023/08/29 12:41:17;;;;;;;1.17;0.80;;;20.00;99.90;;;;;;10094446;28;20037;-66
2023/08/29 12:46:09;;;;;;;1.10;1.00;;;19.90;99.90;;;;;;10103750;28;20059;-68
2023/08/29 12:51:00;;;;;;;3.47;0.95;;;19.90;99.90;;;;;;10122479;28;20028;-66
2023/08/29 12:55:50;;;;;;;1.63;0.80;;;20.10;99.90;;;;;;10109893;28;20033;-67
2023/08/29 13:00:41;;;;;;;1.25;0.95;;;20.10;99.90;;;;;;10095077;28;20024;-66
2023/08/29 13:05:32;;;;;;;1.10;1.00;;;20.20;99.90;;;;;;10104814;28;20549;-65
2023/08/29 13:10:23;;;;;;;1.17;0.80;;;20.30;99.90;;;;;;10124793;28;20029;-65
2023/08/29 13:15:16;;;;;;;1.83;1.05;;;20.30;99.90;;;;;;10103979;28;20115;-66
2023/08/29 13:20:07;;;;;;;0.90;0.80;;;20.40;99.90;;;;;;10116377;28;20029;-67
2023/08/29 13:24:58;;;;;;;0.60;0.60;;;20.40;99.90;;;;;;10113978;28;20053;-65
2023/08/29 13:29:48;;;;;;;1.75;0.70;;;20.40;99.90;;;;;;10124190;28;20036;-66
2023/08/29 13:34:39;;;;;;;0.95;0.60;;;20.30;99.90;;;;;;10114235;28;20563;-66
2023/08/29 13:39:30;;;;;;;3.03;1.20;;;20.40;99.90;;;;;;10109086;28;20033;-66
2023/08/29 13:44:20;;;;;;;1.92;1.52;;;20.30;99.90;;;;;;10105900;28;20157;-67
2023/08/29 13:49:11;;;;;;;1.92;1.63;;;20.20;99.90;;;;;;10105995;28;20044;-66
2023/08/29 13:54:03;;;;;;;2.95;1.50;;;20.20;99.90;;;;;;10120890;28;20025;-68
2023/08/29 13:58:55;;;;;;;1.73;1.55;;;20.10;99.90;;;;;;10110860;28;20025;-68
2023/08/29 14:03:46;;;;;;;3.60;2.60;;;20.10;99.90;;;;;;10108872;28;20496;-68
2023/08/29 14:08:36;;;;;;;3.53;2.17;;;20.10;99.90;;;;;;10086372;28;20029;-68
2023/08/29 14:13:27;;;;;;;5.18;1.90;;;20.00;99.90;;;;;;10112238;28;20020;-69
2023/08/29 14:18:17;;;;;;;4.65;3.45;;;20.00;99.90;;;;;;10104713;28;20370;-69
2023/08/29 14:23:08;;;;;;;4.45;2.05;;;20.10;99.90;;;;;;10123234;28;20053;-69
2023/08/29 14:28:01;;;;;;;3.05;1.38;;;20.00;99.90;;;;;;10123872;28;20128;-69
2023/08/29 14:32:52;;;;;;;1.08;0.85;;;20.00;99.90;;;;;;10106231;28;20029;-68
2023/08/29 14:37:42;;;;;;;2.20;1.00;;;20.00;99.90;;;;;;10109648;28;20031;-67
2023/08/29 14:42:34;;;;;;;1.73;1.15;;;20.00;99.90;;;;;;10106251;28;20162;-67
2023/08/29 14:47:24;;;;;;;1.73;1.13;;;20.10;99.90;;;;;;10101533;28;20041;-67
2023/08/29 14:52:15;;;;;;;1.83;1.00;;;20.10;99.90;;;;;;10127805;28;20031;-69
2023/08/29 14:57:06;;;;;;;2.80;1.10;;;20.10;99.90;;;;;;10111726;28;20433;-69
2023/08/29 15:01:56;;;;;;;2.22;0.98;;;20.10;99.90;;;;;;10104586;28;20082;-68
2023/08/29 15:06:47;;;;;;;1.02;0.73;;;20.10;99.90;;;;;;10102516;28;20036;-67
2023/08/29 15:11:38;;;;;;;0.88;0.80;;;20.00;99.90;;;;;;10099841;28;20036;-69
2023/08/29 15:16:28;;;;;;;3.40;1.05;;;20.00;99.90;;;;;;10097434;28;20045;-69
2023/08/29 15:21:19;;;;;;;0.70;0.70;;;20.10;99.90;;;;;;10131521;28;20283;-68
2023/08/29 15:26:10;;;;;;;1.35;0.75;;;20.10;99.90;;;;;;10110119;28;20037;-69
2023/08/29 15:31:02;;;;;;;1.23;0.90;;;20.10;99.90;;;;;;10100624;28;20024;-69
2023/08/29 15:35:54;;;;;;;1.88;0.80;;;20.10;99.90;;;;;;10078051;28;20195;-68
2023/08/29 15:40:49;;;;;;;1.67;0.90;;;20.10;99.90;;;;;;10098937;28;20534;-67
2023/08/29 15:45:46;;;;;;;0.70;0.68;;;20.00;99.90;;;;;;10090159;28;20033;-68
2023/08/29 15:50:37;;;;;;;3.13;1.40;;;20.00;99.90;;;;;;10110480;28;20021;-67
2023/08/29 15:55:29;;;;;;;1.65;0.98;;;20.00;99.90;;;;;;10106773;28;20498;-68
2023/08/29 16:00:19;;;;;;;0.90;0.75;;;20.00;99.90;;;;;;10091560;28;20572;-69
2023/08/29 16:05:11;;;;;;;1.52;1.17;;;20.00;99.90;;;;;;10104647;28;20064;-68
2023/08/29 16:10:01;;;;;;;1.38;1.10;;;20.00;99.90;;;;;;10100389;28;20280;-65
2023/08/29 16:14:52;;;;;;;1.00;0.80;;;20.10;99.90;;;;;;10109988;28;20108;-67
2023/08/29 16:19:43;;;;;;;1.05;0.82;;;20.10;99.90;;;;;;10132052;28;20439;-68
2023/08/29 16:24:34;;;;;;;1.50;1.20;;;20.10;99.90;;;;;;10122080;28;20323;-69
2023/08/29 16:29:34;;;;;;;1.85;1.33;;;20.20;99.90;;;;;;10109114;28;20127;-69
2023/08/29 16:34:25;;;;;;;2.55;1.38;;;20.30;99.90;;;;;;10076073;28;20034;-70
2023/08/29 16:39:16;;;;;;;2.97;1.20;;;20.20;99.90;;;;;;10085468;28;20282;-71
2023/08/29 16:44:06;;;;;;;1.60;1.15;;;20.20;99.90;;;;;;10100896;28;20033;-69
2023/08/29 16:48:58;;;;;;;2.35;1.00;;;20.20;99.90;;;;;;10094315;28;20159;-69
2023/08/29 16:53:49;;;;;;;1.70;1.13;;;20.20;99.90;;;;;;10112945;28;20065;-71
2023/08/29 16:58:40;;;;;;;2.30;1.27;;;20.20;99.90;;;;;;10105710;28;20434;-71
2023/08/29 17:03:31;;;;;;;1.90;1.25;;;20.20;99.90;;;;;;10087304;28;20031;-69
2023/08/29 17:08:24;;;;;;;1.35;1.17;;;20.30;99.90;;;;;;10088530;28;20510;-70
2023/08/29 17:13:15;;;;;;;2.47;1.50;;;20.20;99.90;;;;;;10085990;28;20475;-71
2023/08/29 17:18:06;;;;;;;3.42;1.55;;;20.20;99.90;;;;;;10113149;28;20170;-71
2023/08/29 17:22:56;;;;;;;3.10;1.83;;;20.20;99.90;;;;;;10113959;28;20063;-70
2023/08/29 17:27:47;;;;;;;4.43;2.58;;;20.20;99.90;;;;;;10125123;28;20047;-71
2023/08/29 17:32:38;;;;;;;1.63;1.33;;;20.20;99.90;;;;;;10118465;28;20376;-67
2023/08/29 17:37:29;;;;;;;1.50;1.30;;;20.10;99.90;;;;;;10092004;28;20044;-67
2023/08/29 17:42:20;;;;;;;2.47;1.50;;;20.10;99.90;;;;;;10088695;28;20032;-68
2023/08/29 17:47:11;;;;;;;1.80;1.30;;;20.10;99.90;;;;;;10090670;28;20041;-68
2023/08/29 17:52:02;;;;;;;2.00;1.63;;;20.10;99.90;;;;;;10106658;28;20071;-68
2023/08/29 17:56:53;;;;;;;2.33;1.90;;;20.10;99.90;;;;;;10111055;28;20024;-68
2023/08/29 18:01:44;;;;;;;4.57;2.10;;;20.10;99.90;;;;;;10112330;28;20032;-68
2023/08/29 18:06:35;;;;;;;3.60;2.30;;;20.10;99.90;;;;;;10109436;28;20116;-67
2023/08/29 18:11:27;;;;;;;2.85;1.80;;;20.10;99.90;;;;;;10102495;28;20029;-69
2023/08/29 18:16:18;;;;;;;5.60;2.95;;;20.10;99.90;;;;;;10115149;28;20112;-69
2023/08/29 18:21:10;;;;;;;4.60;2.90;;;20.10;99.90;;;;;;10121206;28;20119;-71
2023/08/29 18:26:04;;;;;;;5.10;3.22;;;20.00;99.90;;;;;;10067506;28;20575;-71
2023/08/29 18:31:05;;;;;;;6.28;3.15;;;19.90;99.90;;;;;;10092049;28;20123;-70
2023/08/29 18:35:56;;;;;;;5.38;2.70;;;19.90;99.90;;;;;;10103068;28;20449;-70
2023/08/29 18:40:47;;;;;;;6.43;3.67;;;19.90;99.90;;;;;;10088889;28;20025;-72
2023/08/29 18:45:37;;;;;;;5.90;2.83;;;19.90;99.90;;;;;;10104707;28;20036;-70
2023/08/29 18:50:28;;;;;;;7.30;3.45;;;19.80;99.90;;;;;;10087104;28;20510;-71
2023/08/29 18:55:19;;;;;;;3.83;2.45;;;19.80;99.90;;;;;;10087937;28;20495;-72
2023/08/29 19:00:11;;;;;;;6.28;3.38;;;19.90;99.90;;;;;;10083899;28;20037;-70
2023/08/29 19:05:03;;;;;;;3.95;3.08;;;19.90;99.90;;;;;;10085781;28;20028;-67
2023/08/29 19:09:54;;;;;;;2.88;2.40;;;19.80;99.90;;;;;;10096026;28;20051;-68
2023/08/29 19:14:46;;;;;;;5.10;3.40;;;19.70;99.90;;;;;;10094322;28;20108;-67
2023/08/29 19:19:36;;;;;;;3.53;2.67;;;19.80;99.90;;;;;;10099437;28;20032;-69
2023/08/29 19:24:27;;;;;;;6.75;2.58;;;19.80;99.90;;;;;;10081973;28;20586;-68
2023/08/29 19:29:19;;;;;;;3.35;2.67;;;19.80;99.90;;;;;;10077353;28;20036;-71
2023/08/29 19:34:12;;;;;;;3.03;2.03;;;19.80;99.90;;;;;;10106043;28;20043;-71
2023/08/29 19:39:04;;;;;;;2.65;1.88;;;19.80;99.90;;;;;;10104262;28;20087;-69
2023/08/29 19:43:58;;;;;;;3.70;2.38;;;19.80;99.90;;;;;;10109540;28;20454;-68
2023/08/29 19:48:49;;;;;;;3.60;2.40;;;19.60;99.90;;;;;;10096367;28;20025;-69
2023/08/29 19:53:40;;;;;;;3.15;2.47;;;19.60;99.90;;;;;;10109346;28;20259;-70
2023/08/29 19:58:30;;;;;;;2.33;2.13;;;19.60;99.90;;;;;;10102393;28;20029;-70
2023/08/29 20:03:21;;;;;;;3.08;2.33;;;19.60;99.90;;;;;;10095792;28;20033;-70
2023/08/29 20:08:18;;;;;;;2.65;2.38;;;19.50;99.90;;;;;;10095015;28;20049;-72
2023/08/29 20:13:09;;;;;;;4.22;2.40;;;19.60;99.90;;;;;;10111386;28;20025;-70
2023/08/29 20:17:59;;;;;;;4.72;3.28;;;19.50;99.90;;;;;;10143379;28;20036;-71
2023/08/29 20:22:53;;;;;;;3.45;2.00;;;19.50;99.90;;;;;;10130730;28;20526;-70
2023/08/29 20:27:44;;;;;;;2.80;1.90;;;19.40;99.90;;;;;;10112837;28;20040;-72
2023/08/29 20:32:35;;;;;;;3.88;2.05;;;19.50;99.90;;;;;;10128204;28;20029;-71
2023/08/29 20:37:27;;;;;;;8.50;2.33;;;19.40;99.90;;;;;;10087766;28;20073;-71
2023/08/29 20:42:20;;;;;;;2.25;2.05;;;19.40;99.90;;;;;;10110960;28;20016;-72
2023/08/29 20:47:13;;;;;;;1.88;1.60;;;19.50;99.90;;;;;;10117828;28;20036;-72
2023/08/29 20:52:08;;;;;;;2.08;1.80;;;19.40;99.90;;;;;;10097476;28;20036;-72
2023/08/29 20:56:59;;;;;;;4.38;2.10;;;19.30;99.90;;;;;;10122678;28;20040;-70
2023/08/29 21:01:53;;;;;;;2.13;1.92;;;19.40;99.90;;;;;;10118699;28;20024;-70
2023/08/29 21:06:43;;;;;;;2.38;1.90;;;19.30;99.90;;;;;;10109417;28;20494;-70
2023/08/29 21:11:34;;;;;;;3.10;2.42;;;19.30;99.90;;;;;;10105686;28;20026;-70
2023/08/29 21:16:25;;;;;;;2.10;1.88;;;19.20;99.90;;;;;;10084282;28;20033;-70
2023/08/29 21:21:15;;;;;;;2.40;2.20;;;19.00;99.90;;;;;;10135202;28;20032;-69
2023/08/29 21:26:06;;;;;;;1.92;1.75;;;19.10;99.90;;;;;;10125982;28;20044;-68
2023/08/29 21:30:57;;;;;;;3.60;2.15;;;19.10;99.90;;;;;;10122833;28;20520;-69
2023/08/29 21:35:49;;;;;;;4.80;2.28;;;19.00;99.90;;;;;;10104043;28;20032;-68
2023/08/29 21:40:41;;;;;;;2.88;2.00;;;19.00;99.90;;;;;;10107442;28;20517;-70
2023/08/29 21:45:32;;;;;;;2.33;1.85;;;18.90;99.90;;;;;;10111804;28;20086;-69
2023/08/29 21:50:23;;;;;;;4.05;2.70;;;18.90;99.90;;;;;;10112679;28;20100;-69
2023/08/29 21:55:14;;;;;;;3.40;2.95;;;18.80;99.90;;;;;;10118926;28;20385;-70
2023/08/29 22:00:08;;;;;;;2.35;1.90;;;18.90;99.90;;;;;;10105232;28;20112;-69
2023/08/29 22:04:59;;;;;;;5.30;2.17;;;18.90;99.90;;;;;;10103669;28;20036;-70
2023/08/29 22:09:50;;;;;;;3.75;2.20;;;18.90;99.90;;;;;;10094848;28;20025;-69
2023/08/29 22:14:40;;;;;;;4.68;2.40;;;18.80;99.90;;;;;;10078843;28;20029;-70
2023/08/29 22:19:31;;;;;;;1.90;1.75;;;18.70;99.90;;;;;;10131315;28;20037;-69
2023/08/29 22:24:24;;;;;;;4.20;2.28;;;18.70;99.90;;;;;;10122967;28;20044;-69
2023/08/29 22:29:16;;;;;;;2.70;2.05;;;18.70;99.90;;;;;;10117409;28;20078;-69
2023/08/29 22:34:06;;;;;;;3.53;2.13;;;18.60;99.90;;;;;;10110498;28;20395;-69
2023/08/29 22:38:57;;;;;;;2.20;2.00;;;18.60;99.90;;;;;;10096762;28;20024;-69
2023/08/29 22:43:47;;;;;;;2.47;2.28;;;18.60;99.90;;;;;;10109811;28;20131;-69
2023/08/29 22:49:00;;;;;;;3.90;2.05;;;18.60;99.90;;;;;;10104693;28;20283;-69
2023/08/29 22:53:51;;;;;;;2.97;2.47;;;18.50;99.90;;;;;;10104227;28;20025;-69
2023/08/29 22:58:44;;;;;;;2.92;2.45;;;18.40;99.90;;;;;;10101156;28;20415;-70
2023/08/29 23:03:35;;;;;;;2.78;2.10;;;18.50;99.90;;;;;;10105314;28;20029;-70
2023/08/29 23:08:26;;;;;;;2.72;2.30;;;18.50;99.90;;;;;;10101755;28;20191;-70
2023/08/29 23:13:18;;;;;;;2.22;1.95;;;18.50;99.90;;;;;;10112403;28;20048;-70
2023/08/29 23:18:09;;;;;;;3.30;3.00;;;18.40;99.90;;;;;;10129816;28;20542;-69
2023/08/29 23:22:59;;;;;;;3.45;2.47;;;18.40;99.90;;;;;;10105739;28;20071;-68
2023/08/29 23:27:53;;;;;;;3.20;2.45;;;18.40;99.90;;;;;;10114325;28;20483;-69
2023/08/29 23:32:48;;;;;;;4.15;2.63;;;18.40;99.90;;;;;;10090229;28;20038;-69
2023/08/29 23:37:39;;;;;;;3.30;2.17;;;18.40;99.90;;;;;;10094386;28;20103;-69
2023/08/29 23:42:30;;;;;;;3.58;2.30;;;18.40;99.90;;;;;;10096726;28;20086;-70
2023/08/29 23:47:21;;;;;;;3.13;2.28;;;18.40;99.90;;;;;;10104900;28;20541;-69
2023/08/29 23:52:11;;;;;;;3.05;2.03;;;18.40;99.90;;;;;;10120771;28;20521;-69
2023/08/29 23:57:02;;;;;;;3.72;2.10;;;18.30;99.90;;;;;;10107043;28;20157;-70
